createdAt,value
2019-03-17T00:01:42.128Z,4.70
2019-03-17T00:04:11.524Z,4.30
2019-03-17T00:06:40.834Z,4.90
2019-03-17T00:09:09.906Z,4.77
2019-03-17T00:11:39.250Z,5.03
2019-03-17T00:14:08.276Z,4.30
2019-03-17T00:16:37.068Z,5.70
2019-03-17T00:19:06.470Z,7.00
2019-03-17T00:21:35.637Z,12.50
2019-03-17T00:24:05.942Z,45.57
2019-03-17T00:26:35.024Z,6.20
2019-03-17T00:29:04.129Z,5.70
2019-03-17T00:31:33.487Z,5.77
2019-03-17T00:34:02.339Z,5.27
2019-03-17T00:36:31.502Z,6.10
2019-03-17T00:39:00.628Z,5.23
2019-03-17T00:41:31.597Z,5.13
2019-03-17T00:44:01.330Z,5.30
2019-03-17T00:46:30.407Z,6.00
2019-03-17T00:48:59.793Z,5.00
2019-03-17T00:51:28.695Z,5.27
2019-03-17T00:53:57.730Z,4.80
2019-03-17T00:56:27.220Z,5.10
2019-03-17T00:58:56.823Z,5.40
2019-03-17T01:01:25.603Z,5.67
2019-03-17T01:03:55.296Z,5.57
2019-03-17T01:06:24.138Z,5.73
2019-03-17T01:08:53.393Z,5.53
2019-03-17T01:11:22.339Z,5.80
2019-03-17T01:13:51.341Z,6.07
2019-03-17T01:16:20.941Z,5.90
2019-03-17T01:18:49.768Z,5.53
2019-03-17T01:21:19.091Z,5.90
2019-03-17T01:23:48.402Z,5.20
2019-03-17T01:26:18.182Z,5.70
2019-03-17T01:28:47.479Z,6.33
2019-03-17T01:31:16.927Z,5.60
2019-03-17T01:33:46.238Z,5.70
2019-03-17T01:36:15.264Z,5.90
2019-03-17T01:38:44.543Z,6.03
2019-03-17T01:41:13.870Z,6.07
2019-03-17T01:43:42.907Z,6.23
2019-03-17T01:46:11.958Z,6.53
2019-03-17T01:48:41.563Z,6.00
2019-03-17T01:51:10.606Z,6.03
2019-03-17T01:53:39.996Z,5.93
2019-03-17T01:56:09.098Z,6.07
2019-03-17T01:58:38.130Z,5.87
2019-03-17T02:01:06.932Z,6.07
2019-03-17T02:03:35.955Z,5.77
2019-03-17T02:06:05.118Z,6.23
2019-03-17T02:08:34.135Z,6.50
2019-03-17T02:11:16.508Z,5.90
2019-03-17T02:13:45.316Z,6.27
2019-03-17T02:16:15.051Z,6.40
2019-03-17T02:18:44.688Z,5.63
2019-03-17T02:21:14.303Z,5.93
2019-03-17T02:23:43.895Z,6.13
2019-03-17T02:26:13.264Z,6.63
2019-03-17T02:28:46.135Z,5.97
2019-03-17T02:31:15.144Z,6.80
2019-03-17T02:33:44.257Z,6.07
2019-03-17T02:36:13.377Z,6.57
2019-03-17T02:38:42.733Z,5.43
2019-03-17T02:41:13.250Z,5.63
2019-03-17T02:44:02.011Z,6.03
2019-03-17T02:49:26.938Z,5.50
2019-03-17T02:51:56.793Z,5.87
2019-03-17T02:54:26.225Z,6.27
2019-03-17T02:56:57.987Z,6.60
2019-03-17T02:59:27.799Z,5.73
2019-03-17T03:01:56.921Z,6.10
2019-03-17T03:04:28.501Z,5.57
2019-03-17T03:07:00.634Z,6.23
2019-03-17T03:09:32.516Z,5.97
2019-03-17T03:12:01.651Z,5.80
2019-03-17T03:14:50.721Z,6.53
2019-03-17T03:17:39.351Z,6.33
2019-03-17T03:20:27.729Z,5.93
2019-03-17T03:23:15.713Z,6.03
2019-03-17T03:26:05.440Z,5.70
2019-03-17T03:28:34.778Z,5.83
2019-03-17T03:31:04.159Z,6.17
2019-03-17T03:33:33.157Z,6.30
2019-03-17T03:36:10.665Z,6.03
2019-03-17T03:38:33.585Z,6.07
2019-03-17T03:41:03.632Z,6.43
2019-03-17T03:43:33.095Z,6.50
2019-03-17T03:46:02.394Z,6.27
2019-03-17T03:48:31.432Z,6.57
2019-03-17T03:51:01.005Z,6.57
2019-03-17T03:53:30.142Z,6.73
2019-03-17T03:56:00.118Z,6.27
2019-03-17T03:58:29.834Z,6.60
2019-03-17T04:00:58.770Z,5.87
2019-03-17T04:03:27.652Z,6.07
2019-03-17T04:05:57.026Z,5.97
2019-03-17T04:08:26.145Z,5.43
2019-03-17T04:10:54.980Z,5.43
2019-03-17T04:13:24.459Z,5.57
2019-03-17T04:15:53.599Z,5.50
2019-03-17T04:18:22.888Z,5.63
2019-03-17T04:20:51.807Z,5.03
2019-03-17T04:23:21.802Z,4.70
2019-03-17T04:25:50.947Z,5.10
2019-03-17T04:28:19.720Z,5.13
2019-03-17T04:30:49.274Z,4.53
2019-03-17T04:33:18.079Z,4.90
2019-03-17T04:35:47.577Z,5.13
2019-03-17T04:38:16.660Z,4.17
2019-03-17T04:40:46.216Z,4.30
2019-03-17T04:43:15.057Z,4.07
2019-03-17T04:45:43.844Z,4.27
2019-03-17T04:48:13.240Z,4.50
2019-03-17T04:50:42.013Z,3.97
2019-03-17T04:53:11.414Z,4.03
2019-03-17T04:55:40.956Z,4.33
2019-03-17T04:58:10.072Z,4.23
2019-03-17T05:00:38.886Z,3.93
2019-03-17T05:03:08.224Z,3.70
2019-03-17T05:05:37.090Z,3.70
2019-03-17T05:08:07.622Z,3.90
2019-03-17T05:10:37.012Z,3.80
2019-03-17T05:13:06.170Z,3.93
2019-03-17T05:15:35.486Z,4.17
2019-03-17T05:18:04.984Z,4.10
2019-03-17T05:20:33.814Z,3.83
2019-03-17T05:23:05.721Z,4.33
2019-03-17T05:25:35.330Z,4.03
2019-03-17T05:28:04.456Z,3.97
2019-03-17T05:30:33.842Z,3.73
2019-03-17T05:33:02.684Z,3.93
2019-03-17T05:35:32.247Z,4.23
2019-03-17T05:38:01.317Z,4.00
2019-03-17T05:40:30.460Z,4.57
2019-03-17T05:42:59.808Z,4.10
2019-03-17T05:45:28.826Z,4.40
2019-03-17T05:47:57.884Z,4.00
2019-03-17T05:50:26.943Z,4.10
2019-03-17T05:52:56.300Z,4.80
2019-03-17T05:55:25.579Z,4.20
2019-03-17T05:57:54.626Z,4.40
2019-03-17T06:00:23.975Z,4.37
2019-03-17T06:02:53.105Z,3.67
2019-03-17T06:05:22.696Z,4.30
2019-03-17T06:07:51.847Z,4.00
2019-03-17T06:10:20.681Z,4.20
2019-03-17T06:12:49.724Z,4.50
2019-03-17T06:15:37.729Z,4.60
2019-03-17T06:18:06.802Z,5.40
2019-03-17T06:20:35.897Z,4.70
2019-03-17T06:23:05.353Z,4.43
2019-03-17T06:25:34.805Z,4.77
2019-03-17T06:28:03.884Z,4.67
2019-03-17T06:30:33.454Z,5.90
2019-03-17T06:33:02.275Z,4.90
2019-03-17T06:35:31.336Z,4.47
2019-03-17T06:38:00.212Z,4.50
2019-03-17T06:40:29.657Z,4.20
2019-03-17T06:42:58.531Z,4.37
2019-03-17T06:45:27.606Z,4.53
2019-03-17T06:47:56.726Z,4.20
2019-03-17T06:50:26.329Z,3.87
2019-03-17T06:52:55.746Z,4.00
2019-03-17T06:55:24.825Z,4.47
2019-03-17T06:57:53.633Z,4.20
2019-03-17T07:00:22.722Z,1.87
2019-03-17T07:02:52.067Z,1.20
2019-03-17T07:05:21.753Z,1.10
2019-03-17T07:07:50.611Z,0.93
2019-03-17T07:10:19.691Z,1.27
2019-03-17T07:12:49.163Z,1.00
2019-03-17T07:15:18.108Z,1.10
2019-03-17T07:17:47.431Z,1.43
2019-03-17T07:20:16.853Z,0.97
2019-03-17T07:22:46.210Z,1.50
2019-03-17T07:25:15.626Z,1.27
2019-03-17T07:27:44.688Z,1.30
2019-03-17T07:30:14.103Z,1.27
2019-03-17T07:32:43.389Z,1.10
2019-03-17T07:35:12.959Z,0.90
2019-03-17T07:37:42.001Z,1.07
2019-03-17T07:43:19.676Z,0.97
2019-03-17T07:48:51.833Z,0.87
2019-03-17T07:51:35.840Z,0.70
2019-03-17T07:54:16.841Z,1.10
2019-03-17T07:59:56.399Z,1.07
2019-03-17T08:05:08.032Z,1.37
2019-03-17T08:08:08.242Z,1.33
2019-03-17T08:10:47.325Z,1.00
2019-03-17T08:13:35.703Z,1.20
2019-03-17T08:16:24.360Z,1.00
2019-03-17T08:19:15.335Z,1.13
2019-03-17T08:22:03.872Z,1.33
2019-03-17T08:24:52.727Z,1.70
2019-03-17T08:27:41.348Z,0.90
2019-03-17T08:30:10.875Z,1.13
2019-03-17T08:32:59.026Z,1.53
2019-03-17T08:35:47.193Z,1.40
2019-03-17T08:38:35.475Z,1.30
2019-03-17T08:41:16.817Z,1.20
2019-03-17T08:43:58.046Z,1.30
2019-03-17T08:46:38.896Z,1.60
2019-03-17T08:49:19.600Z,1.50
2019-03-17T08:54:51.771Z,1.60
2019-03-17T08:57:33.006Z,1.70
2019-03-17T09:00:16.961Z,1.43
2019-03-17T09:05:42.471Z,1.83
2019-03-17T09:08:35.033Z,1.50
2019-03-17T09:11:09.439Z,2.47
2019-03-17T09:13:50.350Z,1.60
2019-03-17T09:16:31.353Z,1.60
2019-03-17T09:19:13.761Z,1.57
2019-03-17T09:27:54.740Z,1.80
2019-03-17T09:30:38.787Z,1.67
2019-03-17T09:33:19.423Z,2.00
2019-03-17T09:35:48.334Z,1.60
2019-03-17T09:38:46.772Z,1.70
2019-03-17T09:41:26.665Z,1.87
2019-03-17T09:44:15.061Z,1.60
2019-03-17T09:47:03.350Z,2.00
2019-03-17T09:49:52.015Z,2.13
2019-03-17T09:52:40.705Z,1.60
2019-03-17T09:55:28.974Z,1.73
2019-03-17T09:58:17.091Z,2.90
2019-03-17T10:01:05.141Z,1.90
2019-03-17T10:03:53.143Z,1.87
2019-03-17T10:06:41.446Z,1.97
2019-03-17T10:09:29.810Z,1.80
2019-03-17T10:12:18.046Z,1.73
2019-03-17T10:15:07.043Z,2.10
2019-03-17T10:17:55.335Z,2.27
2019-03-17T10:20:43.416Z,1.70
2019-03-17T10:23:31.718Z,1.80
2019-03-17T10:26:19.780Z,2.47
2019-03-17T10:29:10.337Z,1.73
2019-03-17T10:31:58.322Z,1.70
2019-03-17T10:34:39.675Z,1.93
2019-03-17T10:37:21.175Z,2.00
2019-03-17T10:40:05.787Z,2.07
2019-03-17T10:42:47.947Z,1.97
2019-03-17T10:45:28.824Z,2.17
2019-03-17T10:47:58.450Z,2.10
2019-03-17T10:50:49.858Z,3.43
2019-03-17T10:53:37.110Z,1.90
2019-03-17T10:56:26.814Z,1.80
2019-03-17T10:59:15.401Z,2.00
2019-03-17T11:02:03.397Z,1.90
2019-03-17T11:04:52.011Z,2.10
2019-03-17T11:07:40.292Z,1.80
2019-03-17T11:10:28.617Z,1.50
2019-03-17T11:13:16.871Z,2.30
2019-03-17T11:16:04.894Z,1.63
2019-03-17T11:18:53.196Z,2.03
2019-03-17T11:25:15.818Z,1.50
2019-03-17T11:28:05.021Z,1.60
2019-03-17T11:31:12.276Z,1.80
2019-03-17T11:36:41.360Z,1.77
2019-03-17T11:39:11.063Z,1.67
2019-03-17T11:41:40.588Z,1.60
2019-03-17T11:44:09.634Z,1.47
2019-03-17T11:46:38.715Z,1.60
2019-03-17T11:49:07.812Z,1.87
2019-03-17T11:51:36.838Z,1.53
2019-03-17T11:54:05.667Z,1.63
2019-03-17T11:56:37.426Z,1.70
2019-03-17T11:59:06.509Z,1.80
2019-03-17T12:01:35.644Z,1.80
2019-03-17T12:04:05.059Z,1.70
2019-03-17T12:06:34.318Z,1.90
2019-03-17T12:09:04.447Z,1.50
2019-03-17T12:11:33.958Z,1.77
2019-03-17T12:14:05.410Z,2.23
2019-03-17T12:16:34.484Z,1.40
2019-03-17T12:19:03.854Z,1.80
2019-03-17T12:21:34.534Z,1.73
2019-03-17T12:24:03.392Z,1.60
2019-03-17T12:26:32.621Z,1.57
2019-03-17T12:29:01.684Z,1.23
2019-03-17T12:31:30.830Z,1.97
2019-03-17T12:34:00.196Z,2.10
2019-03-17T12:36:29.224Z,2.40
2019-03-17T12:38:58.305Z,1.70
2019-03-17T12:41:27.061Z,1.07
2019-03-17T12:43:56.231Z,1.30
2019-03-17T12:46:25.822Z,1.00
2019-03-17T12:48:54.885Z,1.07
2019-03-17T12:51:24.255Z,1.30
2019-03-17T12:53:53.300Z,1.20
2019-03-17T12:56:22.101Z,1.20
2019-03-17T12:58:51.426Z,1.07
2019-03-17T13:01:20.486Z,1.17
2019-03-17T13:03:49.628Z,0.80
2019-03-17T13:06:19.014Z,1.00
2019-03-17T13:08:48.453Z,1.00
2019-03-17T13:11:17.244Z,1.20
2019-03-17T13:13:46.666Z,1.50
2019-03-17T13:16:16.282Z,1.10
2019-03-17T13:18:45.379Z,1.10
2019-03-17T13:21:14.451Z,1.27
2019-03-17T13:23:43.632Z,1.40
2019-03-17T13:26:12.746Z,1.23
2019-03-17T13:28:42.336Z,0.93
2019-03-17T13:31:11.376Z,1.10
2019-03-17T13:33:40.307Z,1.40
2019-03-17T13:36:09.210Z,1.10
2019-03-17T13:38:38.536Z,1.03
2019-03-17T13:41:08.181Z,1.33
2019-03-17T13:43:37.269Z,1.17
2019-03-17T13:46:06.438Z,3.00
2019-03-17T13:48:35.796Z,1.10
2019-03-17T13:51:04.562Z,1.10
2019-03-17T13:53:33.892Z,1.20
2019-03-17T13:56:03.267Z,1.10
2019-03-17T13:58:32.644Z,1.27
2019-03-17T14:01:01.998Z,1.37
2019-03-17T14:03:30.858Z,1.30
2019-03-17T14:06:02.287Z,1.00
2019-03-17T14:08:31.494Z,1.17
2019-03-17T14:11:00.618Z,1.40
2019-03-17T14:13:29.668Z,1.50
2019-03-17T14:15:59.000Z,1.40
2019-03-17T14:18:28.110Z,1.40
2019-03-17T14:20:57.531Z,1.50
2019-03-17T14:23:26.885Z,1.17
2019-03-17T14:25:55.681Z,1.20
2019-03-17T14:28:24.704Z,1.37
2019-03-17T14:30:53.795Z,1.20
2019-03-17T14:33:22.559Z,1.03
2019-03-17T14:35:51.956Z,0.97
2019-03-17T14:38:20.989Z,0.87
2019-03-17T14:40:53.908Z,1.10
2019-03-17T14:43:20.554Z,0.90
2019-03-17T14:45:49.825Z,0.80
2019-03-17T14:48:19.195Z,1.00
2019-03-17T14:50:48.762Z,1.00
2019-03-17T14:53:17.853Z,0.83
2019-03-17T14:55:47.209Z,0.70
2019-03-17T14:58:16.346Z,1.10
2019-03-17T15:00:45.395Z,1.13
2019-03-17T15:03:14.410Z,0.80
2019-03-17T15:05:43.591Z,0.80
2019-03-17T15:08:12.929Z,1.30
2019-03-17T15:10:42.311Z,1.03
2019-03-17T15:13:11.637Z,1.10
2019-03-17T15:15:40.433Z,1.50
2019-03-17T15:18:09.231Z,1.10
2019-03-17T15:20:38.630Z,0.90
2019-03-17T15:23:07.822Z,1.10
2019-03-17T15:25:36.900Z,1.07
2019-03-17T15:28:05.757Z,1.10
2019-03-17T15:30:34.660Z,1.10
2019-03-17T15:33:03.782Z,1.20
2019-03-17T15:35:32.707Z,1.00
2019-03-17T15:38:02.042Z,1.23
2019-03-17T15:40:31.087Z,1.20
2019-03-17T15:42:59.821Z,1.10
2019-03-17T15:45:29.052Z,1.70
2019-03-17T15:47:58.405Z,1.40
2019-03-17T15:50:27.276Z,1.20
2019-03-17T15:52:56.038Z,1.50
2019-03-17T15:55:25.315Z,1.60
2019-03-17T15:57:54.416Z,1.67
2019-03-17T16:00:26.412Z,1.33
2019-03-17T16:02:54.402Z,1.30
2019-03-17T16:05:23.444Z,1.40
2019-03-17T16:07:52.680Z,1.30
2019-03-17T16:10:21.855Z,1.50
2019-03-17T16:12:51.012Z,1.60
2019-03-17T16:15:20.069Z,1.50
2019-03-17T16:17:49.190Z,1.40
2019-03-17T16:20:19.103Z,1.13
2019-03-17T16:22:48.461Z,1.77
2019-03-17T16:25:17.716Z,1.20
2019-03-17T16:27:47.137Z,1.30
2019-03-17T16:30:25.714Z,1.10
2019-03-17T16:32:54.874Z,1.50
2019-03-17T16:35:23.964Z,1.87
2019-03-17T16:37:52.964Z,1.47
2019-03-17T16:40:22.473Z,1.30
2019-03-17T16:42:53.806Z,1.50
2019-03-17T16:45:22.664Z,1.30
2019-03-17T16:47:52.060Z,1.30
2019-03-17T16:50:20.980Z,1.60
2019-03-17T16:52:50.171Z,1.60
2019-03-17T16:55:19.960Z,1.73
2019-03-17T16:57:48.861Z,1.50
2019-03-17T17:00:19.292Z,1.50
2019-03-17T17:02:48.712Z,1.60
2019-03-17T17:05:17.618Z,1.60
2019-03-17T17:07:47.074Z,1.57
2019-03-17T17:10:17.118Z,1.93
2019-03-17T17:12:46.404Z,1.70
2019-03-17T17:15:20.442Z,1.60
2019-03-17T17:17:49.710Z,1.50
2019-03-17T17:20:20.590Z,1.70
2019-03-17T17:22:49.894Z,1.60
2019-03-17T17:25:19.363Z,1.70
2019-03-17T17:27:48.550Z,1.63
2019-03-17T17:30:18.634Z,1.83
2019-03-17T17:32:47.597Z,1.10
2019-03-17T17:35:16.545Z,1.60
2019-03-17T17:37:45.652Z,1.30
2019-03-17T17:40:15.728Z,1.37
2019-03-17T17:42:45.036Z,1.60
2019-03-17T17:45:14.695Z,1.37
2019-03-17T17:47:43.714Z,1.57
2019-03-17T17:50:14.489Z,1.50
2019-03-17T17:52:43.859Z,1.80
2019-03-17T17:55:13.150Z,1.57
2019-03-17T17:57:42.264Z,1.67
2019-03-17T18:00:13.708Z,1.50
2019-03-17T18:02:42.795Z,1.30
2019-03-17T18:05:11.778Z,1.20
2019-03-17T18:07:40.586Z,1.53
2019-03-17T18:10:09.732Z,1.70
2019-03-17T18:12:39.075Z,1.83
2019-03-17T18:15:09.846Z,1.50
2019-03-17T18:17:39.065Z,1.37
2019-03-17T18:20:08.976Z,1.60
2019-03-17T18:22:38.274Z,1.60
2019-03-17T18:25:08.212Z,1.67
2019-03-17T18:27:37.322Z,1.30
2019-03-17T18:30:07.107Z,1.30
2019-03-17T18:32:38.250Z,1.70
2019-03-17T18:35:06.851Z,1.60
2019-03-17T18:37:35.951Z,1.50
2019-03-17T18:40:06.222Z,1.90
2019-03-17T18:42:35.462Z,1.20
2019-03-17T18:45:07.506Z,1.50
2019-03-17T18:47:36.910Z,1.60
2019-03-17T18:50:06.048Z,1.20
2019-03-17T18:52:35.442Z,1.43
2019-03-17T18:55:04.458Z,1.90
2019-03-17T18:57:33.282Z,1.40
2019-03-17T19:00:04.358Z,1.83
2019-03-17T19:02:33.326Z,1.50
2019-03-17T19:05:02.486Z,1.73
2019-03-17T19:07:34.983Z,1.23
2019-03-17T19:10:04.271Z,1.50
2019-03-17T19:12:45.028Z,1.60
2019-03-17T19:15:04.995Z,1.50
2019-03-17T19:17:34.444Z,1.83
2019-03-17T19:20:03.734Z,1.70
2019-03-17T19:22:33.001Z,1.30
2019-03-17T19:25:02.491Z,1.40
2019-03-17T19:27:31.313Z,1.87
2019-03-17T19:30:00.693Z,1.80
2019-03-17T19:32:29.793Z,1.30
2019-03-17T19:34:59.144Z,1.50
2019-03-17T19:37:28.566Z,1.60
2019-03-17T19:39:57.715Z,1.53
2019-03-17T19:42:27.065Z,1.60
2019-03-17T19:44:56.185Z,1.53
2019-03-17T19:47:25.214Z,1.70
2019-03-17T19:49:54.674Z,1.67
2019-03-17T19:52:23.474Z,1.90
2019-03-17T19:54:52.618Z,1.60
2019-03-17T19:57:21.718Z,1.50
2019-03-17T19:59:50.852Z,2.10
2019-03-17T20:02:21.666Z,1.80
2019-03-17T20:04:50.962Z,1.60
2019-03-17T20:07:20.297Z,1.43
2019-03-17T20:09:49.701Z,1.43
2019-03-17T20:12:19.359Z,1.60
2019-03-17T20:14:48.648Z,1.33
2019-03-17T20:17:18.216Z,1.37
2019-03-17T20:19:47.321Z,1.77
2019-03-17T20:22:16.415Z,1.77
2019-03-17T20:24:45.563Z,1.70
2019-03-17T20:27:14.361Z,1.77
2019-03-17T20:29:43.151Z,1.60
2019-03-17T20:32:12.633Z,1.80
2019-03-17T20:34:41.758Z,2.20
2019-03-17T20:37:11.109Z,2.20
2019-03-17T20:39:40.217Z,1.80
2019-03-17T20:42:09.267Z,1.87
2019-03-17T20:44:38.338Z,2.10
2019-03-17T20:47:07.191Z,1.60
2019-03-17T20:49:36.600Z,1.60
2019-03-17T20:52:05.632Z,1.60
2019-03-17T20:54:35.218Z,2.43
2019-03-17T20:57:03.988Z,1.40
2019-03-17T20:59:33.035Z,1.83
2019-03-17T21:02:01.846Z,2.00
2019-03-17T21:04:33.286Z,1.70
2019-03-17T21:07:02.326Z,1.60
2019-03-17T21:09:31.482Z,2.23
2019-03-17T21:12:00.310Z,1.97
2019-03-17T21:14:30.191Z,1.60
2019-03-17T21:16:59.014Z,1.80
2019-03-17T21:19:28.273Z,1.60
2019-03-17T21:21:57.325Z,1.80
2019-03-17T21:24:26.293Z,1.87
2019-03-17T21:26:55.374Z,1.57
2019-03-17T21:29:25.242Z,2.43
2019-03-17T21:31:54.141Z,2.00
2019-03-17T21:34:23.020Z,1.73
2019-03-17T21:36:52.271Z,1.67
2019-03-17T21:39:21.103Z,1.73
2019-03-17T21:41:50.154Z,1.70
2019-03-17T21:44:18.920Z,2.00
2019-03-17T21:46:48.083Z,2.07
2019-03-17T21:49:17.095Z,2.30
2019-03-17T21:51:46.386Z,1.97
2019-03-17T21:54:15.459Z,3.07
2019-03-17T21:56:44.516Z,1.80
2019-03-17T21:59:13.849Z,2.27
2019-03-17T22:01:43.454Z,1.70
2019-03-17T22:04:12.760Z,2.13
2019-03-17T22:06:41.930Z,2.27
2019-03-17T22:09:11.621Z,2.43
2019-03-17T22:11:40.691Z,1.97
2019-03-17T22:14:12.198Z,1.57
2019-03-17T22:16:40.266Z,2.10
2019-03-17T22:19:10.082Z,2.10
2019-03-17T22:21:39.771Z,2.07
2019-03-17T22:24:09.182Z,1.73
2019-03-17T22:26:38.320Z,2.10
2019-03-17T22:29:07.397Z,3.03
2019-03-17T22:31:36.399Z,1.80
2019-03-17T22:34:08.132Z,2.30
2019-03-17T22:36:36.520Z,2.23
2019-03-17T22:39:07.254Z,2.13
2019-03-17T22:41:36.282Z,2.00
2019-03-17T22:44:05.465Z,1.67
2019-03-17T22:46:34.790Z,2.10
2019-03-17T22:49:04.080Z,2.17
2019-03-17T22:51:33.391Z,1.87
2019-03-17T22:54:02.140Z,1.80
2019-03-17T22:56:31.451Z,2.23
2019-03-17T22:59:00.714Z,1.70
2019-03-17T23:01:29.573Z,1.90
2019-03-17T23:03:58.619Z,1.87
2019-03-17T23:06:28.016Z,2.00
2019-03-17T23:08:57.022Z,1.80
2019-03-17T23:11:26.161Z,2.10
2019-03-17T23:13:55.272Z,1.80
2019-03-17T23:16:24.639Z,1.70
2019-03-17T23:18:53.675Z,1.63
2019-03-17T23:21:22.709Z,1.83
2019-03-17T23:23:52.037Z,1.70
2019-03-17T23:26:21.369Z,2.07
2019-03-17T23:28:50.269Z,1.93
2019-03-17T23:31:19.046Z,1.67
2019-03-17T23:33:48.150Z,1.90
2019-03-17T23:36:17.759Z,2.10
2019-03-17T23:38:46.898Z,1.80
2019-03-17T23:41:15.751Z,1.80
2019-03-17T23:43:45.142Z,1.90
2019-03-17T23:46:14.382Z,1.70
2019-03-17T23:48:43.424Z,2.20
2019-03-17T23:51:12.458Z,2.33
2019-03-17T23:53:41.500Z,1.93
2019-03-17T23:56:10.914Z,1.70
2019-03-17T23:58:39.794Z,1.93
